Time;durP1;ratioP1;P1;durP2;ratioP2;P2;SDS_P1;SDS_P2;PMS_P1;PMS_P2;Temp;Humidity;BMP_temperature;BMP_pressure;BME280_temperature;BME280_humidity;BME280_pressure;Samples;Min_cycle;Max_cycle;Signal;HPM_P1;HPM_P2
2021/05/23 00:00:24;;;;;;;10.75;3.53;;;5.90;89.80;;;;;;5046484;28;20061;-62
2021/05/23 00:02:57;;;;;;;11.57;3.50;;;5.80;89.90;;;;;;5048330;28;20411;-63
2021/05/23 00:05:27;;;;;;;6.35;3.47;;;5.80;90.20;;;;;;5047717;28;20401;-62
2021/05/23 00:08:02;;;;;;;4.95;3.00;;;5.80;90.30;;;;;;5046350;28;20059;-62
2021/05/23 00:10:33;;;;;;;6.95;3.05;;;5.80;90.40;;;;;;5047821;28;20055;-63
2021/05/23 00:13:04;;;;;;;8.05;3.58;;;5.80;90.50;;;;;;5046889;28;20060;-64
2021/05/23 00:15:38;;;;;;;14.25;3.92;;;5.80;90.70;;;;;;5049824;28;20053;-62
2021/05/23 00:18:08;;;;;;;13.50;3.67;;;5.80;90.80;;;;;;5051594;28;20057;-62
2021/05/23 00:20:37;;;;;;;13.80;3.85;;;5.80;91.00;;;;;;5050387;28;20049;-62
2021/05/23 00:23:05;;;;;;;9.40;3.42;;;5.90;91.40;;;;;;5049185;28;20489;-63
2021/05/23 00:25:32;;;;;;;7.75;3.30;;;6.00;91.60;;;;;;5047919;28;20053;-62
2021/05/23 00:28:00;;;;;;;6.75;2.75;;;6.20;91.70;;;;;;5051120;28;20044;-62
2021/05/23 00:30:28;;;;;;;7.90;3.28;;;6.20;91.60;;;;;;5051250;28;20053;-62
2021/05/23 00:32:57;;;;;;;8.07;2.85;;;6.40;91.30;;;;;;5051393;28;20064;-63
2021/05/23 00:35:25;;;;;;;6.80;2.65;;;6.40;91.00;;;;;;5051031;28;20056;-62
2021/05/23 00:37:52;;;;;;;9.40;2.60;;;6.50;90.60;;;;;;5051490;28;20057;-62
2021/05/23 00:40:21;;;;;;;12.68;2.78;;;6.50;90.40;;;;;;5049810;28;20061;-62
2021/05/23 00:42:49;;;;;;;6.95;2.22;;;6.40;90.40;;;;;;5051380;28;20331;-62
2021/05/23 00:45:18;;;;;;;6.70;2.10;;;6.40;90.30;;;;;;5051126;28;20060;-63
2021/05/23 00:47:47;;;;;;;8.38;2.55;;;6.30;90.20;;;;;;5049473;28;20072;-63
2021/05/23 00:50:24;;;;;;;6.40;2.10;;;6.30;90.20;;;;;;5050897;28;20045;-63
2021/05/23 00:52:54;;;;;;;9.73;2.15;;;6.30;90.10;;;;;;5049626;28;20076;-62
2021/05/23 00:55:23;;;;;;;4.85;2.20;;;6.30;90.10;;;;;;5049598;28;20048;-63
2021/05/23 00:57:51;;;;;;;4.55;2.20;;;6.20;90.10;;;;;;5051039;28;20056;-62
2021/05/23 01:00:41;;;;;;;4.45;2.15;;;6.20;90.00;;;;;;5049706;28;20068;-62
2021/05/23 01:03:27;;;;;;;7.47;1.83;;;6.10;89.70;;;;;;5050741;28;20049;-61
2021/05/23 01:05:54;;;;;;;4.95;2.10;;;6.00;89.50;;;;;;5049251;28;20069;-62
2021/05/23 01:08:24;;;;;;;6.25;2.38;;;5.90;89.40;;;;;;5051012;28;20041;-62
2021/05/23 01:11:06;;;;;;;8.25;2.80;;;5.80;89.40;;;;;;5050404;28;20056;-63
2021/05/23 01:13:59;;;;;;;10.10;2.22;;;5.70;89.50;;;;;;5050282;28;20053;-63
2021/05/23 01:16:38;;;;;;;4.47;2.20;;;5.60;89.50;;;;;;5032802;28;20053;-63
2021/05/23 01:19:33;;;;;;;8.82;2.78;;;5.50;89.60;;;;;;5050372;28;20056;-62
2021/05/23 01:22:21;;;;;;;9.80;2.60;;;5.50;89.60;;;;;;5047104;28;20041;-63
2021/05/23 01:25:19;;;;;;;6.07;2.63;;;5.40;89.90;;;;;;5025879;28;20533;-62
2021/05/23 01:27:51;;;;;;;5.47;2.17;;;5.30;89.70;;;;;;5025344;28;20050;-63
2021/05/23 01:30:26;;;;;;;5.78;2.38;;;5.30;89.90;;;;;;5030959;28;20505;-63
2021/05/23 01:33:03;;;;;;;7.32;1.63;;;5.30;90.10;;;;;;5028753;28;20699;-63
2021/05/23 01:35:36;;;;;;;4.30;1.88;;;5.30;90.00;;;;;;5030217;28;20673;-62
2021/05/23 01:38:10;;;;;;;7.95;2.20;;;5.30;90.10;;;;;;5030216;28;20050;-63
2021/05/23 01:40:39;;;;;;;2.75;1.88;;;5.30;90.30;;;;;;5043892;28;20417;-62
2021/05/23 01:43:07;;;;;;;4.95;2.42;;;5.30;90.20;;;;;;5049261;28;20379;-62
2021/05/23 01:45:36;;;;;;;6.55;2.15;;;5.30;90.00;;;;;;5036370;28;20065;-61
2021/05/23 01:48:07;;;;;;;4.80;2.10;;;5.30;89.90;;;;;;5028139;28;20054;-62
2021/05/23 01:50:35;;;;;;;3.65;1.60;;;5.20;89.70;;;;;;5030138;28;20053;-62
2021/05/23 01:53:04;;;;;;;7.47;1.55;;;5.20;89.70;;;;;;5031184;28;20045;-62
2021/05/23 01:55:34;;;;;;;4.80;2.30;;;5.20;89.60;;;;;;5031791;28;20077;-63
2021/05/23 01:58:03;;;;;;;6.68;1.70;;;5.10;89.30;;;;;;5031574;28;20508;-62
2021/05/23 02:00:40;;;;;;;3.45;1.63;;;5.10;89.30;;;;;;5032853;28;20406;-62
2021/05/23 02:03:10;;;;;;;3.20;1.58;;;5.00;89.20;;;;;;5031454;28;20049;-62
2021/05/23 02:05:49;;;;;;;7.82;1.70;;;5.00;89.10;;;;;;5031384;28;20395;-63
2021/05/23 02:08:22;;;;;;;6.10;1.88;;;5.00;89.30;;;;;;5032686;28;20072;-62
2021/05/23 02:10:52;;;;;;;7.50;1.52;;;5.00;89.20;;;;;;5048241;28;20072;-63
2021/05/23 02:13:21;;;;;;;4.70;1.80;;;4.90;89.20;;;;;;5052834;28;20048;-63
2021/05/23 02:15:49;;;;;;;5.07;1.90;;;4.90;89.10;;;;;;5052810;28;20063;-63
2021/05/23 02:18:18;;;;;;;7.78;2.00;;;4.90;89.00;;;;;;5052215;28;20056;-63
2021/05/23 02:20:46;;;;;;;8.13;2.03;;;4.90;88.90;;;;;;5052450;28;20059;-63
2021/05/23 02:23:16;;;;;;;7.40;1.80;;;4.90;88.80;;;;;;5051954;28;20061;-63
2021/05/23 02:25:44;;;;;;;8.40;1.83;;;4.90;88.80;;;;;;5051913;28;20064;-63
2021/05/23 02:28:13;;;;;;;4.00;1.67;;;4.80;88.60;;;;;;5050315;28;20045;-63
2021/05/23 02:30:46;;;;;;;5.45;1.95;;;4.80;88.70;;;;;;5052225;28;20052;-63
2021/05/23 02:33:15;;;;;;;5.32;1.70;;;4.80;88.70;;;;;;5048867;28;20436;-63
2021/05/23 02:35:45;;;;;;;4.95;1.38;;;4.80;88.70;;;;;;5052146;28;20064;-63
2021/05/23 02:38:15;;;;;;;14.68;2.28;;;4.70;88.90;;;;;;5051867;28;20068;-62
2021/05/23 02:40:43;;;;;;;5.85;1.67;;;4.80;88.70;;;;;;5052037;28;20044;-63
2021/05/23 02:43:12;;;;;;;8.23;1.58;;;4.70;88.60;;;;;;5051803;28;20068;-62
2021/05/23 02:45:41;;;;;;;5.47;1.52;;;4.70;88.50;;;;;;5051895;28;20087;-63
2021/05/23 02:48:09;;;;;;;6.25;1.67;;;4.70;88.50;;;;;;5051930;28;20603;-63
2021/05/23 02:50:43;;;;;;;4.93;1.48;;;4.60;88.60;;;;;;5052405;28;20060;-63
2021/05/23 02:53:12;;;;;;;6.60;1.58;;;4.60;88.50;;;;;;5052259;28;20052;-62
2021/05/23 02:55:43;;;;;;;5.38;1.40;;;4.50;88.60;;;;;;5050574;28;20057;-62
2021/05/23 02:58:12;;;;;;;3.25;1.50;;;4.50;88.60;;;;;;5051796;28;20052;-61
2021/05/23 03:00:41;;;;;;;4.82;1.80;;;4.50;88.80;;;;;;5050653;28;20386;-61
2021/05/23 03:03:10;;;;;;;4.50;1.67;;;4.50;88.50;;;;;;5051332;28;20064;-62
2021/05/23 03:05:38;;;;;;;3.72;1.60;;;4.40;88.50;;;;;;5050001;28;20059;-62
2021/05/23 03:08:07;;;;;;;4.35;1.40;;;4.40;88.30;;;;;;5050280;28;20056;-61
2021/05/23 03:10:42;;;;;;;4.78;1.50;;;4.40;88.30;;;;;;5051300;28;20079;-61
2021/05/23 03:13:10;;;;;;;3.75;1.50;;;4.30;88.40;;;;;;5051587;28;20699;-63
2021/05/23 03:15:39;;;;;;;7.10;1.40;;;4.20;88.40;;;;;;5049840;28;20052;-61
2021/05/23 03:18:08;;;;;;;2.55;1.80;;;4.20;88.50;;;;;;5051164;28;20453;-61
2021/05/23 03:20:38;;;;;;;2.72;1.42;;;4.10;88.60;;;;;;5051160;28;20060;-62
2021/05/23 03:23:07;;;;;;;2.55;1.40;;;4.00;88.80;;;;;;5051083;28;20045;-61
2021/05/23 03:25:35;;;;;;;5.82;1.75;;;4.00;88.90;;;;;;5051138;28;20425;-62
2021/05/23 03:28:03;;;;;;;14.13;1.98;;;3.90;88.80;;;;;;5051361;28;20059;-62
2021/05/23 03:30:37;;;;;;;6.57;1.65;;;3.80;88.90;;;;;;5051122;28;20053;-63
2021/05/23 03:33:06;;;;;;;9.63;1.80;;;3.80;88.90;;;;;;5035947;28;20061;-63
2021/05/23 03:35:35;;;;;;;3.90;1.67;;;3.80;88.90;;;;;;5029875;28;20060;-62
2021/05/23 03:38:04;;;;;;;2.88;1.27;;;3.70;89.00;;;;;;5030888;28;20064;-63
2021/05/23 03:40:35;;;;;;;6.47;1.88;;;3.60;89.00;;;;;;5043815;28;20045;-63
2021/05/23 03:43:05;;;;;;;5.22;1.38;;;3.50;89.10;;;;;;5048681;28;20207;-63
2021/05/23 03:45:33;;;;;;;4.80;1.58;;;3.40;89.10;;;;;;5051000;28;20082;-63
2021/05/23 03:48:01;;;;;;;5.53;1.83;;;3.40;89.20;;;;;;5051076;28;20068;-63
2021/05/23 03:50:29;;;;;;;5.13;1.48;;;3.40;89.60;;;;;;5048717;28;20421;-63
2021/05/23 03:52:57;;;;;;;3.10;1.25;;;3.40;89.70;;;;;;5051002;28;20132;-63
2021/05/23 03:55:26;;;;;;;3.90;1.80;;;3.40;90.00;;;;;;5049346;28;20485;-63
2021/05/23 03:57:55;;;;;;;7.10;1.58;;;3.40;89.90;;;;;;5049930;28;20060;-63
2021/05/23 04:00:24;;;;;;;8.93;2.15;;;3.40;89.90;;;;;;5048980;28;20049;-63
2021/05/23 04:02:53;;;;;;;5.00;1.90;;;3.40;89.80;;;;;;5050617;28;20501;-63
2021/05/23 04:05:23;;;;;;;6.55;2.00;;;3.40;89.90;;;;;;5050507;28;20409;-63
2021/05/23 04:07:51;;;;;;;3.85;1.33;;;3.50;90.00;;;;;;5050651;28;20049;-63
2021/05/23 04:10:23;;;;;;;13.30;2.28;;;3.40;90.00;;;;;;5050948;28;20505;-63
2021/05/23 04:12:52;;;;;;;4.30;1.42;;;3.40;90.00;;;;;;5050867;28;20052;-63
2021/05/23 04:15:20;;;;;;;3.58;2.05;;;3.50;90.10;;;;;;5050612;28;20048;-62
2021/05/23 04:17:48;;;;;;;6.30;1.75;;;3.50;90.10;;;;;;5050699;28;20053;-62
2021/05/23 04:20:19;;;;;;;5.10;2.13;;;3.60;90.20;;;;;;5050572;28;20052;-62
2021/05/23 04:22:49;;;;;;;6.82;1.52;;;3.60;90.20;;;;;;5050500;28;20057;-62
2021/05/23 04:25:18;;;;;;;8.20;2.22;;;3.70;90.30;;;;;;5032533;28;20402;-63
2021/05/23 04:27:48;;;;;;;7.40;2.25;;;3.90;90.70;;;;;;5031707;28;20054;-62
2021/05/23 04:30:19;;;;;;;4.00;1.83;;;4.30;90.10;;;;;;5030660;28;20053;-62
2021/05/23 04:32:48;;;;;;;3.30;1.20;;;4.60;89.30;;;;;;5030486;28;20072;-62
2021/05/23 04:35:17;;;;;;;9.75;2.45;;;5.20;89.00;;;;;;5030205;28;20045;-63
2021/05/23 04:37:45;;;;;;;7.00;1.27;;;5.90;88.00;;;;;;5029104;28;20060;-62
2021/05/23 04:40:14;;;;;;;6.78;1.80;;;6.80;86.50;;;;;;5040362;28;20367;-62
2021/05/23 04:42:43;;;;;;;4.40;2.72;;;7.80;84.60;;;;;;5049097;28;20056;-63
2021/05/23 04:45:31;;;;;;;5.53;1.15;;;8.80;82.50;;;;;;5049908;28;20045;-61
2021/05/23 04:47:59;;;;;;;7.13;1.42;;;9.90;80.20;;;;;;5048658;28;20453;-62
2021/05/23 04:50:28;;;;;;;6.72;1.67;;;10.80;78.20;;;;;;5046404;28;20116;-61
2021/05/23 04:52:55;;;;;;;6.25;1.73;;;11.70;76.20;;;;;;5046988;28;20049;-61
2021/05/23 04:55:23;;;;;;;8.70;1.52;;;12.30;74.10;;;;;;5044710;28;20424;-61
2021/05/23 04:57:51;;;;;;;4.43;1.27;;;12.90;72.30;;;;;;5025116;28;20046;-62
2021/05/23 05:00:20;;;;;;;5.38;1.48;;;13.40;70.60;;;;;;5026676;28;20061;-62
2021/05/23 05:02:48;;;;;;;2.80;1.10;;;13.90;68.90;;;;;;5030719;28;20473;-62
2021/05/23 05:05:19;;;;;;;4.97;1.50;;;14.30;67.70;;;;;;5030427;28;20513;-61
2021/05/23 05:07:47;;;;;;;7.93;1.40;;;14.40;66.60;;;;;;5030270;28;20065;-62
2021/05/23 05:10:15;;;;;;;5.93;1.45;;;14.70;65.70;;;;;;5039654;28;20057;-61
2021/05/23 05:12:42;;;;;;;4.32;1.42;;;14.90;64.90;;;;;;5050560;28;20056;-62
2021/05/23 05:15:11;;;;;;;3.38;1.42;;;15.30;63.90;;;;;;5050507;28;20147;-61
2021/05/23 05:17:39;;;;;;;5.10;1.35;;;15.70;62.70;;;;;;5050523;28;20067;-63
2021/05/23 05:20:08;;;;;;;7.47;1.63;;;16.00;61.70;;;;;;5050181;28;20068;-63
2021/05/23 05:22:37;;;;;;;10.85;1.60;;;16.30;61.00;;;;;;5049974;28;20053;-62
2021/05/23 05:25:06;;;;;;;4.68;1.65;;;16.50;60.40;;;;;;5033382;28;20053;-62
2021/05/23 05:27:34;;;;;;;4.07;1.10;;;16.80;59.50;;;;;;5028907;28;20064;-62
2021/05/23 05:30:04;;;;;;;5.93;1.40;;;17.10;58.60;;;;;;5030329;28;20418;-62
2021/05/23 05:32:32;;;;;;;5.03;1.60;;;17.10;57.60;;;;;;5030682;28;20054;-62
2021/05/23 05:34:59;;;;;;;5.38;1.67;;;16.50;57.60;;;;;;5030356;28;20070;-63
2021/05/23 05:37:28;;;;;;;7.30;1.70;;;15.80;58.50;;;;;;5041192;28;20053;-62
2021/05/23 05:39:57;;;;;;;11.82;1.75;;;15.00;59.00;;;;;;5047527;28;20064;-62
2021/05/23 05:42:25;;;;;;;5.93;1.67;;;14.20;60.10;;;;;;5048366;28;20075;-61
2021/05/23 05:44:52;;;;;;;8.55;1.48;;;13.50;61.30;;;;;;5033446;28;20037;-62
2021/05/23 05:47:20;;;;;;;5.57;1.48;;;12.90;61.90;;;;;;5049468;28;20492;-62
2021/05/23 05:49:48;;;;;;;4.70;1.65;;;12.40;63.00;;;;;;5049620;28;20499;-62
2021/05/23 05:52:16;;;;;;;4.47;1.50;;;12.60;63.60;;;;;;5029987;28;20099;-62
2021/05/23 05:54:44;;;;;;;4.13;1.42;;;13.40;62.80;;;;;;5049290;28;20057;-62
2021/05/23 05:57:12;;;;;;;5.45;1.45;;;14.40;61.30;;;;;;5048219;28;20413;-62
2021/05/23 05:59:45;;;;;;;5.97;2.03;;;15.30;59.70;;;;;;5050069;28;20486;-62
2021/05/23 06:02:14;;;;;;;7.60;1.42;;;16.10;57.90;;;;;;5048722;28;20071;-62
2021/05/23 06:04:43;;;;;;;7.43;1.60;;;16.80;56.60;;;;;;5049342;28;20060;-63
2021/05/23 06:07:11;;;;;;;3.95;1.30;;;17.40;54.90;;;;;;5048041;28;20390;-62
2021/05/23 06:09:38;;;;;;;6.07;1.35;;;18.10;52.90;;;;;;5048155;28;20068;-63
2021/05/23 06:12:07;;;;;;;6.07;1.48;;;18.80;51.90;;;;;;5048915;28;20056;-63
2021/05/23 06:14:35;;;;;;;9.10;1.30;;;19.50;51.20;;;;;;5047021;28;20067;-62
2021/05/23 06:17:03;;;;;;;7.50;1.80;;;20.10;49.80;;;;;;5046169;28;20057;-63
2021/05/23 06:19:31;;;;;;;4.80;1.48;;;20.40;47.70;;;;;;5049067;28;20056;-62
2021/05/23 06:21:59;;;;;;;5.70;1.73;;;20.80;47.50;;;;;;5048958;28;20079;-62
2021/05/23 06:24:27;;;;;;;6.10;1.80;;;21.00;44.90;;;;;;5048306;28;20049;-64
2021/05/23 06:26:55;;;;;;;5.43;1.65;;;21.30;44.90;;;;;;5042175;28;20057;-63
2021/05/23 06:29:23;;;;;;;7.18;1.63;;;21.50;44.00;;;;;;5045971;28;20611;-63
2021/05/23 06:31:51;;;;;;;4.32;1.98;;;21.80;42.90;;;;;;5046608;28;20049;-64
2021/05/23 06:34:18;;;;;;;5.60;2.03;;;22.20;42.70;;;;;;5048018;28;20111;-62
2021/05/23 06:36:46;;;;;;;6.25;1.98;;;22.60;42.00;;;;;;5046768;28;20052;-62
2021/05/23 06:39:14;;;;;;;5.78;2.13;;;22.90;40.00;;;;;;5046892;28;20063;-63
2021/05/23 06:41:42;;;;;;;6.38;1.73;;;23.10;38.90;;;;;;5048360;28;20063;-63
2021/05/23 06:44:10;;;;;;;3.95;1.73;;;23.20;38.30;;;;;;5047041;28;20053;-62
2021/05/23 06:46:38;;;;;;;3.83;1.63;;;23.30;38.10;;;;;;5046278;28;20072;-62
2021/05/23 06:49:06;;;;;;;6.45;1.40;;;23.40;36.90;;;;;;5047997;28;20067;-63
2021/05/23 06:51:34;;;;;;;4.30;1.52;;;23.50;36.90;;;;;;5040009;28;20407;-62
2021/05/23 06:54:02;;;;;;;4.53;1.73;;;23.70;36.70;;;;;;5047016;28;20052;-62
2021/05/23 06:56:30;;;;;;;8.10;2.45;;;23.90;36.60;;;;;;5048328;28;20052;-62
2021/05/23 06:58:57;;;;;;;3.83;1.98;;;24.00;36.40;;;;;;5047921;28;20049;-62
2021/05/23 07:01:25;;;;;;;7.50;2.83;;;24.10;35.30;;;;;;5046659;28;20049;-63
2021/05/23 07:03:53;;;;;;;6.70;1.95;;;24.00;35.30;;;;;;5044584;28;20052;-62
2021/05/23 07:06:21;;;;;;;6.07;2.50;;;24.00;35.60;;;;;;5046115;28;20037;-62
2021/05/23 07:08:49;;;;;;;5.72;1.92;;;24.20;35.80;;;;;;5045172;28;20049;-62
2021/05/23 07:11:16;;;;;;;6.57;2.20;;;24.30;35.40;;;;;;5046528;28;20044;-61
2021/05/23 07:13:44;;;;;;;3.85;1.58;;;24.20;34.40;;;;;;5045035;28;20057;-65
2021/05/23 07:16:12;;;;;;;8.23;2.53;;;23.80;34.60;;;;;;5045061;28;20045;-63
2021/05/23 07:18:40;;;;;;;5.32;2.13;;;23.50;35.20;;;;;;5047594;28;20362;-64
2021/05/23 07:21:08;;;;;;;5.13;1.83;;;23.30;35.10;;;;;;5043379;28;20053;-64
2021/05/23 07:23:36;;;;;;;6.85;2.47;;;23.10;35.70;;;;;;5038439;28;20061;-62
2021/05/23 07:26:04;;;;;;;4.60;2.25;;;23.10;35.60;;;;;;5026845;28;20060;-63
2021/05/23 07:28:33;;;;;;;8.50;2.05;;;23.00;34.60;;;;;;5026394;28;20057;-62
2021/05/23 07:31:01;;;;;;;7.43;2.00;;;22.40;34.50;;;;;;5028238;28;20046;-62
2021/05/23 07:33:30;;;;;;;4.85;1.85;;;21.70;35.70;;;;;;5026461;28;20060;-62
2021/05/23 07:35:58;;;;;;;4.40;1.95;;;21.20;36.40;;;;;;5027412;28;20045;-60
2021/05/23 07:38:26;;;;;;;6.95;2.70;;;20.60;37.30;;;;;;5026716;28;20061;-62
2021/05/23 07:40:54;;;;;;;5.90;2.30;;;20.10;38.20;;;;;;5043138;28;20072;-61
2021/05/23 07:43:22;;;;;;;5.50;2.38;;;19.80;39.00;;;;;;5046641;28;20505;-60
2021/05/23 07:45:50;;;;;;;6.60;2.35;;;19.70;39.20;;;;;;5044118;28;20049;-61
2021/05/23 07:48:18;;;;;;;8.45;2.10;;;19.30;39.80;;;;;;5046125;28;20064;-62
2021/05/23 07:50:47;;;;;;;7.88;2.10;;;19.10;40.40;;;;;;5047529;28;20079;-63
2021/05/23 07:53:16;;;;;;;8.25;2.53;;;18.90;40.70;;;;;;5028583;28;20416;-62
2021/05/23 07:55:45;;;;;;;4.75;2.22;;;18.70;41.20;;;;;;5047276;28;20259;-62
2021/05/23 07:58:13;;;;;;;6.70;2.30;;;18.40;41.10;;;;;;5047253;28;20071;-62
2021/05/23 08:00:41;;;;;;;5.93;2.10;;;18.20;41.70;;;;;;5037371;28;20045;-62
2021/05/23 08:03:09;;;;;;;9.13;2.25;;;17.90;42.30;;;;;;5045424;28;20049;-62
2021/05/23 08:05:37;;;;;;;9.88;2.72;;;17.70;42.70;;;;;;5046835;28;20057;-62
2021/05/23 08:08:06;;;;;;;6.28;2.40;;;17.30;43.00;;;;;;5046590;28;20050;-62
2021/05/23 08:10:34;;;;;;;5.65;1.92;;;16.80;43.00;;;;;;5046940;28;20061;-62
2021/05/23 08:13:02;;;;;;;8.10;2.25;;;16.60;43.60;;;;;;5046745;28;20049;-61
2021/05/23 08:15:31;;;;;;;7.95;2.30;;;16.30;43.90;;;;;;5045922;28;20059;-62
2021/05/23 08:18:00;;;;;;;9.38;2.85;;;16.10;44.30;;;;;;5045000;28;20052;-61
2021/05/23 08:20:27;;;;;;;11.00;2.17;;;16.10;44.70;;;;;;5046340;28;20044;-61
2021/05/23 08:22:56;;;;;;;3.85;1.60;;;16.10;44.90;;;;;;5047484;28;20928;-63
2021/05/23 08:25:24;;;;;;;9.48;1.92;;;16.00;44.90;;;;;;5044391;28;20804;-64
2021/05/23 08:27:55;;;;;;;8.10;1.90;;;16.10;45.10;;;;;;5047644;28;20053;-61
2021/05/23 08:30:23;;;;;;;4.75;2.00;;;16.10;45.10;;;;;;5044411;28;20064;-63
2021/05/23 08:32:51;;;;;;;4.07;1.70;;;16.20;45.00;;;;;;5047691;28;20079;-62
2021/05/23 08:35:25;;;;;;;5.73;2.37;;;16.10;45.00;;;;;;5044229;28;20057;-61
2021/05/23 08:37:52;;;;;;;4.30;1.52;;;16.00;45.00;;;;;;5051128;28;20301;-63
2021/05/23 08:40:20;;;;;;;5.65;2.25;;;15.90;45.10;;;;;;5051073;28;20640;-62
2021/05/23 08:42:49;;;;;;;6.03;2.00;;;15.80;45.20;;;;;;5051073;28;20053;-62
2021/05/23 08:45:17;;;;;;;7.82;2.17;;;15.60;45.50;;;;;;5050689;28;20057;-62
2021/05/23 08:47:45;;;;;;;6.32;2.05;;;15.60;45.80;;;;;;5049384;28;20413;-63
2021/05/23 08:50:18;;;;;;;5.00;2.00;;;15.50;45.90;;;;;;5051222;28;20056;-62
2021/05/23 08:52:53;;;;;;;4.32;1.88;;;15.40;46.20;;;;;;5050860;28;20055;-62
2021/05/23 08:55:21;;;;;;;7.60;1.92;;;15.50;46.50;;;;;;5049390;28;20509;-63
2021/05/23 08:57:51;;;;;;;4.47;1.80;;;15.50;46.80;;;;;;5050694;28;20049;-62
2021/05/23 09:00:20;;;;;;;4.28;1.73;;;15.60;46.70;;;;;;5049812;28;20056;-61
2021/05/23 09:02:54;;;;;;;6.32;1.95;;;15.60;46.60;;;;;;5047787;28;20053;-63
2021/05/23 09:05:41;;;;;;;7.82;2.42;;;15.60;46.80;;;;;;5030778;28;20053;-62
2021/05/23 09:08:14;;;;;;;5.63;2.30;;;15.50;46.70;;;;;;5041724;28;20056;-63
2021/05/23 09:10:43;;;;;;;6.47;2.30;;;15.50;47.00;;;;;;5043364;28;20065;-62
2021/05/23 09:13:13;;;;;;;8.82;2.15;;;15.50;47.20;;;;;;5050551;28;20060;-62
2021/05/23 09:15:41;;;;;;;5.80;2.28;;;15.60;47.20;;;;;;5049011;28;20056;-62
2021/05/23 09:18:12;;;;;;;11.05;2.88;;;15.60;47.20;;;;;;5048433;28;20068;-61
2021/05/23 09:20:42;;;;;;;4.85;1.95;;;15.70;47.40;;;;;;5049022;28;20493;-61
2021/05/23 09:23:18;;;;;;;11.15;2.80;;;15.80;47.60;;;;;;5050477;28;20821;-61
2021/05/23 09:25:46;;;;;;;8.30;2.28;;;15.90;47.60;;;;;;5033922;28;20485;-61
2021/05/23 09:28:14;;;;;;;10.57;2.72;;;16.10;47.60;;;;;;5030042;28;20049;-61
2021/05/23 09:30:44;;;;;;;7.30;2.47;;;16.30;47.50;;;;;;5030026;28;20052;-61
2021/05/23 09:33:20;;;;;;;7.00;2.33;;;16.40;47.30;;;;;;5029874;28;20065;-61
2021/05/23 09:35:48;;;;;;;9.52;2.50;;;16.60;47.30;;;;;;5030229;28;20057;-61
2021/05/23 09:38:18;;;;;;;6.03;2.42;;;16.80;47.20;;;;;;5028649;28;20052;-65
2021/05/23 09:40:46;;;;;;;7.65;2.38;;;16.80;46.80;;;;;;5044554;28;20060;-61
2021/05/23 09:43:23;;;;;;;6.22;2.65;;;16.90;47.10;;;;;;5049689;28;20057;-61
2021/05/23 09:45:54;;;;;;;9.20;2.58;;;16.90;47.40;;;;;;5050349;28;20061;-61
2021/05/23 09:48:25;;;;;;;8.68;2.85;;;17.00;47.70;;;;;;5049177;28;20424;-62
2021/05/23 09:50:55;;;;;;;6.95;2.50;;;16.90;48.20;;;;;;5048645;28;20049;-62
2021/05/23 09:53:27;;;;;;;9.18;2.92;;;16.70;48.60;;;;;;5049545;28;20049;-62
2021/05/23 09:55:55;;;;;;;7.80;2.53;;;16.60;49.20;;;;;;5049467;28;20060;-61
2021/05/23 09:58:38;;;;;;;7.97;2.72;;;16.70;49.30;;;;;;5048502;28;20351;-61
2021/05/23 10:01:23;;;;;;;5.95;2.05;;;16.80;49.30;;;;;;5049680;28;20056;-61
2021/05/23 10:03:53;;;;;;;7.72;2.30;;;16.80;49.10;;;;;;5049541;28;20055;-61
2021/05/23 10:06:33;;;;;;;8.85;3.03;;;16.80;48.80;;;;;;5048158;28;20045;-62
2021/05/23 10:09:02;;;;;;;6.82;2.17;;;16.60;49.10;;;;;;5049069;28;20056;-61
2021/05/23 10:11:30;;;;;;;6.28;2.20;;;16.50;50.30;;;;;;5049401;28;20064;-63
2021/05/23 10:13:57;;;;;;;8.13;2.92;;;16.30;51.50;;;;;;5030586;28;20049;-62
2021/05/23 10:16:27;;;;;;;7.68;2.78;;;16.20;52.00;;;;;;5046585;28;20045;-62
2021/05/23 10:18:57;;;;;;;5.88;2.38;;;16.10;52.50;;;;;;5046588;28;20055;-62
2021/05/23 10:21:27;;;;;;;7.97;2.25;;;16.00;53.10;;;;;;5047296;28;20057;-62
2021/05/23 10:23:59;;;;;;;6.43;2.05;;;15.90;53.40;;;;;;5046183;28;20492;-61
2021/05/23 10:26:48;;;;;;;10.07;2.65;;;15.80;53.50;;;;;;5046193;28;20033;-62
2021/05/23 10:29:18;;;;;;;6.15;2.50;;;15.80;53.70;;;;;;5047024;28;20059;-61
2021/05/23 10:31:47;;;;;;;5.63;2.25;;;15.80;53.80;;;;;;5049005;28;20071;-62
2021/05/23 10:34:15;;;;;;;7.00;2.28;;;15.90;53.90;;;;;;5048090;28;20441;-62
2021/05/23 10:36:44;;;;;;;8.05;2.85;;;16.10;53.70;;;;;;5038041;28;20053;-62
2021/05/23 10:39:14;;;;;;;5.57;2.22;;;16.40;53.20;;;;;;5039573;28;20049;-63
2021/05/23 10:41:43;;;;;;;3.78;1.55;;;16.60;52.40;;;;;;5032021;28;20557;-62
2021/05/23 10:44:26;;;;;;;9.63;3.30;;;16.60;51.30;;;;;;5029334;28;20072;-61
2021/05/23 10:46:54;;;;;;;5.32;2.03;;;16.50;51.50;;;;;;5035490;28;20065;-61
2021/05/23 10:49:22;;;;;;;6.57;2.13;;;16.20;51.60;;;;;;5037490;28;20057;-61
2021/05/23 10:51:58;;;;;;;10.52;2.70;;;15.80;52.10;;;;;;5040176;28;20057;-61
2021/05/23 10:54:29;;;;;;;8.65;3.75;;;15.50;52.80;;;;;;5045386;28;20053;-61
2021/05/23 10:57:01;;;;;;;7.30;2.58;;;15.60;53.20;;;;;;5048415;28;20049;-61
2021/05/23 10:59:32;;;;;;;8.00;2.17;;;15.80;53.00;;;;;;5047954;28;20068;-61
2021/05/23 11:02:00;;;;;;;9.82;2.13;;;16.00;52.30;;;;;;5043356;28;20045;-61
2021/05/23 11:04:42;;;;;;;5.07;2.13;;;16.20;51.60;;;;;;5027259;28;20060;-62
2021/05/23 11:07:11;;;;;;;11.20;2.60;;;16.30;51.20;;;;;;5010822;28;20065;-62
2021/05/23 11:09:43;;;;;;;6.15;2.22;;;16.50;51.00;;;;;;5032630;28;20053;-62
2021/05/23 11:12:13;;;;;;;5.30;1.90;;;16.60;50.50;;;;;;5048903;28;20056;-63
2021/05/23 11:14:52;;;;;;;6.38;2.25;;;16.60;50.40;;;;;;5048326;28;20619;-61
2021/05/23 11:17:21;;;;;;;12.55;3.25;;;16.70;50.40;;;;;;5046517;28;20783;-62
2021/05/23 11:19:49;;;;;;;9.65;2.58;;;16.70;50.60;;;;;;5046761;28;20084;-61
2021/05/23 11:22:17;;;;;;;12.05;3.60;;;16.80;50.70;;;;;;5029985;28;20052;-61
2021/05/23 11:24:51;;;;;;;8.60;3.13;;;16.80;50.50;;;;;;5037969;28;20060;-62
2021/05/23 11:27:31;;;;;;;7.55;2.53;;;16.90;50.70;;;;;;5026660;28;20058;-61
2021/05/23 11:30:10;;;;;;;8.68;2.83;;;17.00;50.20;;;;;;5027891;28;20052;-62
2021/05/23 11:32:37;;;;;;;9.07;2.58;;;16.80;50.20;;;;;;5027968;28;20541;-62
2021/05/23 11:35:06;;;;;;;6.57;2.50;;;16.60;50.80;;;;;;5028021;28;20068;-62
2021/05/23 11:37:39;;;;;;;12.48;2.83;;;16.60;51.30;;;;;;5027706;28;20140;-62
2021/05/23 11:40:08;;;;;;;;;;;16.70;51.30;;;;;;5037304;28;20053;-61
2021/05/23 11:42:41;;;;;;;8.40;2.42;;;16.80;50.90;;;;;;5047983;28;19925;-61
2021/05/23 11:45:29;;;;;;;6.43;1.85;;;17.10;50.60;;;;;;5047489;28;20398;-63
2021/05/23 11:48:01;;;;;;;9.75;2.33;;;17.50;50.30;;;;;;5047667;28;20057;-62
2021/05/23 11:50:29;;;;;;;8.98;2.53;;;17.80;49.90;;;;;;5047242;28;20556;-62
2021/05/23 11:52:57;;;;;;;7.90;2.38;;;18.00;49.10;;;;;;5030119;28;20063;-63
2021/05/23 11:55:27;;;;;;;7.07;2.83;;;18.20;48.60;;;;;;5046235;28;20056;-61
2021/05/23 11:58:12;;;;;;;8.30;2.58;;;18.30;48.10;;;;;;5047462;28;20053;-61
2021/05/23 12:00:40;;;;;;;9.93;2.45;;;18.30;47.20;;;;;;5047366;28;20060;-61
2021/05/23 12:03:10;;;;;;;12.00;3.25;;;18.20;47.20;;;;;;5045696;28;20088;-63
2021/05/23 12:05:44;;;;;;;8.15;3.28;;;17.80;48.70;;;;;;5044359;28;20517;-65
2021/05/23 12:08:22;;;;;;;5.70;2.42;;;17.20;52.70;;;;;;5046417;28;20056;-64
2021/05/23 12:11:04;;;;;;;7.45;2.53;;;16.20;55.80;;;;;;5044810;28;20045;-63
2021/05/23 12:13:37;;;;;;;8.33;2.60;;;15.50;58.90;;;;;;5046924;28;20056;-63
2021/05/23 12:16:06;;;;;;;11.25;2.75;;;15.30;60.20;;;;;;5046774;28;20656;-60
2021/05/23 12:18:39;;;;;;;6.15;2.63;;;15.10;60.50;;;;;;5043001;28;20049;-60
2021/05/23 12:21:09;;;;;;;9.95;2.05;;;15.20;60.40;;;;;;5027631;28;20053;-61
2021/05/23 12:23:38;;;;;;;7.35;2.40;;;15.30;60.80;;;;;;5026912;28;20058;-60
2021/05/23 12:26:16;;;;;;;7.45;2.40;;;15.60;60.30;;;;;;5025683;28;20064;-62
2021/05/23 12:28:46;;;;;;;6.32;2.33;;;15.80;59.90;;;;;;5026828;28;20056;-60
2021/05/23 12:31:16;;;;;;;7.90;2.40;;;16.10;59.20;;;;;;5027163;28;20046;-60
2021/05/23 12:33:54;;;;;;;10.70;3.13;;;16.20;58.40;;;;;;5027074;28;20060;-61
2021/05/23 12:36:24;;;;;;;13.45;2.13;;;16.20;58.20;;;;;;5027217;28;20068;-60
2021/05/23 12:39:12;;;;;;;9.43;2.95;;;16.10;59.10;;;;;;5029007;28;20050;-60
2021/05/23 12:41:44;;;;;;;10.98;3.50;;;16.10;59.80;;;;;;5047031;28;20061;-61
2021/05/23 12:44:19;;;;;;;9.10;3.08;;;16.10;60.30;;;;;;5046835;28;20049;-61
2021/05/23 12:46:48;;;;;;;10.45;3.38;;;16.20;60.10;;;;;;5037180;28;20057;-60
2021/05/23 12:49:24;;;;;;;12.35;3.13;;;16.30;59.80;;;;;;5026959;28;20490;-61
2021/05/23 12:51:54;;;;;;;8.63;3.53;;;16.50;59.10;;;;;;5026975;28;20430;-61
2021/05/23 12:54:28;;;;;;;11.82;2.95;;;16.60;58.70;;;;;;5026597;28;20413;-60
2021/05/23 12:57:01;;;;;;;10.38;3.38;;;16.70;57.50;;;;;;5025226;28;20069;-61
2021/05/23 12:59:42;;;;;;;7.82;3.47;;;16.70;57.00;;;;;;5025567;28;20057;-61
2021/05/23 13:02:12;;;;;;;7.50;3.08;;;16.70;56.10;;;;;;5026797;28;20061;-60
2021/05/23 13:04:40;;;;;;;5.93;2.40;;;16.70;55.40;;;;;;5026859;28;20045;-60
2021/05/23 13:07:09;;;;;;;10.45;2.65;;;16.50;53.90;;;;;;5026868;28;20084;-61